createdAt,value
2018-06-14T00:00:39.125Z,16.78
2018-06-14T00:01:39.104Z,16.8
2018-06-14T00:02:39.129Z,16.8
2018-06-14T00:03:39.139Z,16.81
2018-06-14T00:04:39.168Z,16.8
2018-06-14T00:05:39.128Z,16.81
2018-06-14T00:06:39.114Z,16.78
2018-06-14T00:07:39.126Z,16.78
2018-06-14T00:08:39.126Z,16.77
2018-06-14T00:09:39.135Z,16.77
2018-06-14T00:10:39.117Z,16.75
2018-06-14T00:11:39.108Z,16.74
2018-06-14T00:12:39.171Z,16.74
2018-06-14T00:13:39.118Z,16.74
2018-06-14T00:14:39.153Z,16.74
2018-06-14T00:15:39.135Z,16.74
2018-06-14T00:16:39.158Z,16.75
2018-06-14T00:17:39.263Z,16.74
2018-06-14T00:18:39.146Z,16.77
2018-06-14T00:19:39.127Z,16.77
2018-06-14T00:20:39.126Z,16.77
2018-06-14T00:21:39.161Z,16.8
2018-06-14T00:22:39.349Z,16.78
2018-06-14T00:23:39.283Z,16.77
2018-06-14T00:24:39.131Z,16.78
2018-06-14T00:25:39.124Z,16.75
2018-06-14T00:26:39.140Z,16.71
2018-06-14T00:27:39.147Z,16.73
2018-06-14T00:28:39.146Z,16.73
2018-06-14T00:29:39.151Z,16.71
2018-06-14T00:30:39.197Z,16.74
2018-06-14T00:31:39.209Z,16.7
2018-06-14T00:32:39.136Z,16.7
2018-06-14T00:33:39.222Z,16.66
2018-06-14T00:34:39.148Z,16.67
2018-06-14T00:35:39.145Z,16.67
2018-06-14T00:36:39.236Z,16.64
2018-06-14T00:37:39.171Z,16.64
2018-06-14T00:38:39.155Z,16.63
2018-06-14T00:39:39.352Z,16.63
2018-06-14T00:40:39.145Z,16.64
2018-06-14T00:41:39.134Z,16.64
2018-06-14T00:42:39.126Z,16.66
2018-06-14T00:43:39.135Z,16.63
2018-06-14T00:44:39.359Z,16.64
2018-06-14T00:45:39.148Z,16.66
2018-06-14T00:46:39.128Z,16.66
2018-06-14T00:47:39.143Z,16.68
2018-06-14T00:48:39.134Z,16.67
2018-06-14T00:49:39.484Z,16.66
2018-06-14T00:50:39.137Z,16.68
2018-06-14T00:51:39.144Z,16.63
2018-06-14T00:52:39.166Z,16.64
2018-06-14T00:53:39.211Z,16.64
2018-06-14T00:54:39.157Z,16.66
2018-06-14T00:55:39.152Z,16.64
2018-06-14T00:56:39.132Z,16.66
2018-06-14T00:57:39.196Z,16.63
2018-06-14T00:58:39.132Z,16.66
2018-06-14T00:59:39.143Z,16.63
2018-06-14T01:00:39.161Z,16.64
2018-06-14T01:01:39.143Z,16.63
2018-06-14T01:02:39.171Z,16.62
2018-06-14T01:03:39.135Z,16.6
2018-06-14T01:04:39.160Z,16.59
2018-06-14T01:05:39.157Z,16.59
2018-06-14T01:06:39.149Z,16.59
2018-06-14T01:07:39.169Z,16.6
2018-06-14T01:08:39.157Z,16.6
2018-06-14T01:09:39.179Z,16.59
2018-06-14T01:10:39.360Z,16.57
2018-06-14T01:11:39.169Z,16.54
2018-06-14T01:12:39.160Z,16.56
2018-06-14T01:13:39.138Z,16.53
2018-06-14T01:14:39.178Z,16.54
2018-06-14T01:15:39.190Z,16.54
2018-06-14T01:16:39.142Z,16.52
2018-06-14T01:17:39.146Z,16.49
2018-06-14T01:18:39.156Z,16.5
2018-06-14T01:19:39.161Z,16.43
2018-06-14T01:20:39.157Z,16.36
2018-06-14T01:21:39.156Z,16.37
2018-06-14T01:22:39.152Z,16.4
2018-06-14T01:23:39.143Z,16.39
2018-06-14T01:24:39.280Z,16.39
2018-06-14T01:25:39.415Z,16.42
2018-06-14T01:26:39.158Z,16.4
2018-06-14T01:27:39.188Z,16.39
2018-06-14T01:28:39.143Z,16.39
2018-06-14T01:29:39.155Z,16.39
2018-06-14T01:30:39.164Z,16.43
2018-06-14T01:31:39.193Z,16.37
2018-06-14T01:32:39.159Z,16.37
2018-06-14T01:33:39.170Z,16.36
2018-06-14T01:34:39.218Z,16.33
2018-06-14T01:35:39.194Z,16.37
2018-06-14T01:36:39.213Z,16.37
2018-06-14T01:37:39.204Z,16.39
2018-06-14T01:38:39.163Z,16.4
2018-06-14T01:39:39.169Z,16.4
2018-06-14T01:40:39.369Z,16.39
2018-06-14T01:41:39.425Z,16.42
2018-06-14T01:42:39.183Z,16.42
2018-06-14T01:43:39.187Z,16.46
2018-06-14T01:44:39.163Z,16.42
2018-06-14T01:45:39.181Z,16.43
2018-06-14T01:46:39.152Z,16.45
2018-06-14T01:47:39.161Z,16.43
2018-06-14T01:48:39.242Z,16.47
2018-06-14T01:49:39.220Z,16.47
2018-06-14T01:50:39.191Z,16.46
2018-06-14T01:51:39.211Z,16.47
2018-06-14T01:52:39.189Z,16.47
2018-06-14T01:53:39.193Z,16.5
2018-06-14T01:54:39.196Z,16.46
2018-06-14T01:55:39.202Z,16.5
2018-06-14T01:56:39.179Z,16.5
2018-06-14T01:57:39.185Z,16.5
2018-06-14T01:58:39.193Z,16.5
2018-06-14T01:59:39.184Z,16.49
2018-06-14T02:00:39.178Z,16.53
2018-06-14T02:01:39.165Z,16.52
2018-06-14T02:02:39.224Z,16.53
2018-06-14T02:03:39.227Z,16.52
2018-06-14T02:04:39.295Z,16.52
2018-06-14T02:05:39.329Z,16.53
2018-06-14T02:06:39.180Z,16.5
2018-06-14T02:07:39.247Z,16.53
2018-06-14T02:08:39.182Z,16.52
2018-06-14T02:09:39.227Z,16.49
2018-06-14T02:10:39.195Z,16.5
2018-06-14T02:11:39.244Z,16.45
2018-06-14T02:12:39.215Z,16.45
2018-06-14T02:13:39.210Z,16.46
2018-06-14T02:14:39.195Z,16.45
2018-06-14T02:15:39.258Z,16.42
2018-06-14T02:16:39.256Z,16.4
2018-06-14T02:17:39.238Z,16.4
2018-06-14T02:18:39.177Z,16.4
2018-06-14T02:19:39.196Z,16.37
2018-06-14T02:20:39.190Z,16.37
2018-06-14T02:21:39.205Z,16.35
2018-06-14T02:22:39.200Z,16.37
2018-06-14T02:23:39.187Z,16.35
2018-06-14T02:24:39.189Z,16.37
2018-06-14T02:25:39.219Z,16.39
2018-06-14T02:26:39.181Z,16.42
2018-06-14T02:27:39.209Z,16.42
2018-06-14T02:28:39.228Z,16.4
2018-06-14T02:29:39.201Z,16.4
2018-06-14T02:30:39.206Z,16.4
2018-06-14T02:31:39.206Z,16.4
2018-06-14T02:32:39.222Z,16.4
2018-06-14T02:33:39.193Z,16.42
2018-06-14T02:34:39.187Z,16.39
2018-06-14T02:35:39.199Z,16.39
2018-06-14T02:36:39.202Z,16.39
2018-06-14T02:37:39.254Z,16.4
2018-06-14T02:38:39.308Z,16.42
2018-06-14T02:39:39.213Z,16.4
2018-06-14T02:40:39.213Z,16.42
2018-06-14T02:41:39.223Z,16.42
2018-06-14T02:42:39.248Z,16.45
2018-06-14T02:43:39.193Z,16.42
2018-06-14T02:44:39.216Z,16.4
2018-06-14T02:45:39.360Z,16.43
2018-06-14T02:46:39.241Z,16.42
2018-06-14T02:47:39.211Z,16.42
2018-06-14T02:48:39.204Z,16.46
2018-06-14T02:49:39.200Z,16.45
2018-06-14T02:50:39.188Z,16.45
2018-06-14T02:51:39.235Z,16.45
2018-06-14T02:52:39.307Z,16.46
2018-06-14T02:53:39.245Z,16.45
2018-06-14T02:54:39.365Z,16.45
2018-06-14T02:55:39.233Z,16.45
2018-06-14T02:56:39.251Z,16.42
2018-06-14T02:57:39.236Z,16.4
2018-06-14T02:58:39.247Z,16.39
2018-06-14T02:59:39.367Z,16.36
2018-06-14T03:00:39.280Z,16.37
2018-06-14T03:01:39.222Z,16.35
2018-06-14T03:02:39.223Z,16.36
2018-06-14T03:03:39.234Z,16.31
2018-06-14T03:04:39.240Z,16.31
2018-06-14T03:05:39.278Z,16.29
2018-06-14T03:06:39.209Z,16.25
2018-06-14T03:07:39.262Z,16.26
2018-06-14T03:08:39.319Z,16.28
2018-06-14T03:09:39.208Z,16.28
2018-06-14T03:10:39.263Z,16.31
2018-06-14T03:11:39.221Z,16.29
2018-06-14T03:12:39.252Z,16.31
2018-06-14T03:13:39.269Z,16.32
2018-06-14T03:14:39.213Z,16.32
2018-06-14T03:15:39.305Z,16.32
2018-06-14T03:16:39.422Z,16.32
2018-06-14T03:17:39.286Z,16.33
2018-06-14T03:18:39.254Z,16.32
2018-06-14T03:19:39.453Z,16.32
2018-06-14T03:20:39.218Z,16.29
2018-06-14T03:21:39.392Z,16.28
2018-06-14T03:22:39.329Z,16.29
2018-06-14T03:23:39.223Z,16.26
2018-06-14T03:24:39.329Z,16.25
2018-06-14T03:25:39.244Z,16.25
2018-06-14T03:26:39.213Z,16.25
2018-06-14T03:27:39.231Z,16.24
2018-06-14T03:28:39.224Z,16.24
2018-06-14T03:29:39.254Z,16.22
2018-06-14T03:30:39.223Z,16.19
2018-06-14T03:31:39.233Z,16.19
2018-06-14T03:32:39.235Z,16.21
2018-06-14T03:33:39.228Z,16.19
2018-06-14T03:34:39.250Z,16.18
2018-06-14T03:35:39.235Z,16.18
2018-06-14T03:36:39.273Z,16.15
2018-06-14T03:37:39.252Z,16.14
2018-06-14T03:38:39.236Z,16.15
2018-06-14T03:39:39.250Z,16.15
2018-06-14T03:40:39.301Z,16.16
2018-06-14T03:41:39.235Z,16.16
2018-06-14T03:42:39.240Z,16.15
2018-06-14T03:43:39.246Z,16.15
2018-06-14T03:44:39.226Z,16.18
2018-06-14T03:45:39.266Z,16.16
2018-06-14T03:46:39.239Z,16.16
2018-06-14T03:47:39.262Z,16.18
2018-06-14T03:48:39.295Z,16.15
2018-06-14T03:49:39.260Z,16.16
2018-06-14T03:50:39.258Z,16.12
2018-06-14T03:51:39.388Z,16.14
2018-06-14T03:52:39.289Z,16.14
2018-06-14T03:53:39.217Z,16.14
2018-06-14T03:54:39.325Z,16.12
2018-06-14T03:55:39.260Z,16.11
2018-06-14T03:56:39.280Z,16.11
2018-06-14T03:57:39.279Z,16.11
2018-06-14T03:58:39.238Z,16.14
2018-06-14T03:59:39.300Z,16.11
2018-06-14T04:00:39.401Z,16.11
2018-06-14T04:01:39.547Z,16.11
2018-06-14T04:02:39.311Z,16.09
2018-06-14T04:03:39.347Z,16.09
2018-06-14T04:04:39.251Z,16.09
2018-06-14T04:05:39.304Z,16.12
2018-06-14T04:06:39.290Z,16.11
2018-06-14T04:07:39.253Z,16.15
2018-06-14T04:08:39.321Z,16.14
2018-06-14T04:09:39.521Z,16.14
2018-06-14T04:10:44.455Z,16.16
2018-06-14T04:11:39.308Z,16.16
2018-06-14T04:12:39.239Z,16.19
2018-06-14T04:13:39.270Z,16.16
2018-06-14T04:14:39.396Z,16.19
2018-06-14T04:15:39.251Z,16.19
2018-06-14T04:16:39.258Z,16.22
2018-06-14T04:17:39.280Z,16.22
2018-06-14T04:18:39.502Z,16.21
2018-06-14T04:19:39.280Z,16.19
2018-06-14T04:20:39.277Z,16.22
2018-06-14T04:21:39.276Z,16.22
2018-06-14T04:22:39.256Z,16.22
2018-06-14T04:23:39.247Z,16.21
2018-06-14T04:24:39.267Z,16.19
2018-06-14T04:25:39.305Z,16.18
2018-06-14T04:26:39.309Z,16.18
2018-06-14T04:27:39.304Z,16.21
2018-06-14T04:28:39.255Z,16.19
2018-06-14T04:29:39.254Z,16.21
2018-06-14T04:30:39.287Z,16.18
2018-06-14T04:31:39.259Z,16.21
2018-06-14T04:32:39.258Z,16.22
2018-06-14T04:33:39.271Z,16.19
2018-06-14T04:34:39.279Z,16.18
2018-06-14T04:35:39.288Z,16.19
2018-06-14T04:36:39.560Z,16.18
2018-06-14T04:37:39.300Z,16.19
2018-06-14T04:38:39.255Z,16.19
2018-06-14T04:39:39.281Z,16.19
2018-06-14T04:40:39.267Z,16.19
2018-06-14T04:41:39.283Z,16.19
2018-06-14T04:42:39.273Z,16.21
2018-06-14T04:43:39.273Z,16.21
2018-06-14T04:44:39.408Z,16.22
2018-06-14T04:45:39.265Z,16.21
2018-06-14T04:46:39.258Z,16.19
2018-06-14T04:47:39.269Z,16.19
2018-06-14T04:48:39.278Z,16.18
2018-06-14T04:49:39.286Z,16.18
2018-06-14T04:50:39.267Z,16.19
2018-06-14T04:51:39.293Z,16.22
2018-06-14T04:52:39.260Z,16.22
2018-06-14T04:53:39.293Z,16.22
2018-06-14T04:54:39.469Z,16.24
2018-06-14T04:55:39.322Z,16.25
2018-06-14T04:56:39.286Z,16.28
2018-06-14T04:57:39.318Z,16.28
2018-06-14T04:58:39.287Z,16.32
2018-06-14T04:59:39.308Z,16.31
2018-06-14T05:00:39.307Z,16.29
2018-06-14T05:01:39.273Z,16.31
2018-06-14T05:02:39.321Z,16.32
2018-06-14T05:03:39.300Z,16.33
2018-06-14T05:04:39.327Z,16.33
2018-06-14T05:05:39.277Z,16.35
2018-06-14T05:06:39.264Z,16.36
2018-06-14T05:07:39.282Z,16.35
2018-06-14T05:08:39.299Z,16.35
2018-06-14T05:09:39.288Z,16.37
2018-06-14T05:10:39.353Z,16.36
2018-06-14T05:11:39.318Z,16.39
2018-06-14T05:12:39.287Z,16.4
2018-06-14T05:13:39.360Z,16.39
2018-06-14T05:14:39.299Z,16.39
2018-06-14T05:15:39.298Z,16.4
2018-06-14T05:16:39.340Z,16.42
2018-06-14T05:17:39.292Z,16.45
2018-06-14T05:18:39.288Z,16.45
2018-06-14T05:19:39.423Z,16.42
2018-06-14T05:20:39.285Z,16.42
2018-06-14T05:21:39.406Z,16.42
2018-06-14T05:22:39.308Z,16.45
2018-06-14T05:23:39.339Z,16.45
2018-06-14T05:24:39.465Z,16.47
2018-06-14T05:25:39.271Z,16.49
2018-06-14T05:26:39.306Z,16.49
2018-06-14T05:27:39.436Z,16.5
2018-06-14T05:28:39.343Z,16.5
2018-06-14T05:29:39.458Z,16.52
2018-06-14T05:30:39.329Z,16.53
2018-06-14T05:31:39.292Z,16.52
2018-06-14T05:32:39.388Z,16.56
2018-06-14T05:33:39.296Z,16.56
2018-06-14T05:34:39.328Z,16.54
2018-06-14T05:35:39.328Z,16.54
2018-06-14T05:36:39.330Z,16.57
2018-06-14T05:37:39.351Z,16.6
2018-06-14T05:38:39.322Z,16.62
2018-06-14T05:39:39.418Z,16.62
2018-06-14T05:40:39.384Z,16.63
2018-06-14T05:41:39.320Z,16.6
2018-06-14T05:42:39.291Z,16.59
2018-06-14T05:43:39.315Z,16.59
2018-06-14T05:44:39.504Z,16.62
2018-06-14T05:45:39.311Z,16.63
2018-06-14T05:46:39.573Z,16.63
2018-06-14T05:47:39.505Z,16.64
2018-06-14T05:48:39.284Z,16.66
2018-06-14T05:49:39.302Z,16.64
2018-06-14T05:50:39.328Z,16.66
2018-06-14T05:51:39.292Z,16.67
2018-06-14T05:52:39.274Z,16.67
2018-06-14T05:53:39.309Z,16.7
2018-06-14T05:54:39.311Z,16.7
2018-06-14T05:55:39.309Z,16.71
2018-06-14T05:56:39.302Z,16.71
2018-06-14T05:57:39.384Z,16.73
2018-06-14T05:58:39.296Z,16.7
2018-06-14T05:59:39.312Z,16.7
2018-06-14T06:00:39.303Z,16.68
2018-06-14T06:01:39.314Z,16.73
2018-06-14T06:02:39.301Z,16.73
2018-06-14T06:03:39.289Z,16.75
2018-06-14T06:04:39.294Z,16.75
2018-06-14T06:05:39.316Z,16.78
2018-06-14T06:06:39.317Z,16.8
2018-06-14T06:07:39.302Z,16.83
2018-06-14T06:08:39.321Z,16.81
2018-06-14T06:09:39.303Z,16.81
2018-06-14T06:10:39.336Z,16.83
2018-06-14T06:11:39.372Z,16.84
2018-06-14T06:12:39.369Z,16.84
2018-06-14T06:13:39.462Z,16.81
2018-06-14T06:14:39.474Z,16.86
2018-06-14T06:15:39.331Z,16.86
2018-06-14T06:16:39.406Z,16.88
2018-06-14T06:17:39.515Z,16.9
2018-06-14T06:18:39.321Z,16.91
2018-06-14T06:19:39.413Z,16.94
2018-06-14T06:20:39.339Z,16.88
2018-06-14T06:21:39.459Z,16.9
2018-06-14T06:22:39.314Z,16.94
2018-06-14T06:23:39.335Z,16.98
2018-06-14T06:24:39.331Z,16.98
2018-06-14T06:25:39.351Z,17.01
2018-06-14T06:26:39.535Z,16.99
2018-06-14T06:27:39.451Z,17.04
2018-06-14T06:28:39.355Z,17.02
2018-06-14T06:29:39.412Z,17.04
2018-06-14T06:30:39.353Z,17.05
2018-06-14T06:31:39.335Z,17.04
2018-06-14T06:32:39.330Z,17.08
2018-06-14T06:33:39.483Z,17.09
2018-06-14T06:34:39.554Z,17.09
2018-06-14T06:35:39.366Z,17.09
2018-06-14T06:36:39.338Z,17.09
2018-06-14T06:37:39.321Z,17.12
2018-06-14T06:38:39.518Z,17.11
2018-06-14T06:39:39.391Z,17.11
2018-06-14T06:40:39.418Z,17.11
2018-06-14T06:41:39.322Z,17.09
2018-06-14T06:42:39.369Z,17.08
2018-06-14T06:43:40.343Z,17.11
2018-06-14T06:44:39.498Z,17.12
2018-06-14T06:45:39.552Z,17.15
2018-06-14T06:46:39.366Z,17.14
2018-06-14T06:47:39.492Z,17.14
2018-06-14T06:48:39.338Z,17.18
2018-06-14T06:49:39.333Z,17.21
2018-06-14T06:50:39.408Z,17.22
2018-06-14T06:51:39.410Z,17.23
2018-06-14T06:52:39.363Z,17.25
2018-06-14T06:53:39.327Z,17.26
2018-06-14T06:54:39.338Z,17.21
2018-06-14T06:55:39.340Z,17.25
2018-06-14T06:56:39.341Z,17.27
2018-06-14T06:57:39.340Z,17.3
2018-06-14T06:58:39.367Z,17.33
2018-06-14T06:59:39.348Z,17.36
2018-06-14T07:00:39.362Z,17.36
2018-06-14T07:01:39.353Z,17.39
2018-06-14T07:02:39.343Z,17.4
2018-06-14T07:03:39.367Z,17.43
2018-06-14T07:04:39.332Z,17.43
2018-06-14T07:05:39.338Z,17.46
2018-06-14T07:06:39.350Z,17.49
2018-06-14T07:07:39.381Z,17.52
2018-06-14T07:08:39.367Z,17.49
2018-06-14T07:09:39.330Z,17.49
2018-06-14T07:10:39.346Z,17.42
2018-06-14T07:11:39.342Z,17.44
2018-06-14T07:12:39.545Z,17.46
2018-06-14T07:13:39.382Z,17.4
2018-06-14T07:14:39.342Z,17.42
2018-06-14T07:15:39.367Z,17.43
2018-06-14T07:16:39.442Z,17.44
2018-06-14T07:17:39.391Z,17.46
2018-06-14T07:18:39.357Z,17.47
2018-06-14T07:19:39.509Z,17.53
2018-06-14T07:20:39.371Z,17.47
2018-06-14T07:21:39.599Z,17.5
2018-06-14T07:22:39.375Z,17.42
2018-06-14T07:23:39.413Z,17.22
2018-06-14T07:24:39.492Z,17.27
2018-06-14T07:25:39.364Z,17.33
2018-06-14T07:26:39.353Z,17.39
2018-06-14T07:27:39.478Z,17.4
2018-06-14T07:28:39.349Z,17.44
2018-06-14T07:29:39.324Z,17.49
2018-06-14T07:30:39.339Z,17.53
2018-06-14T07:31:39.372Z,17.57
2018-06-14T07:32:39.356Z,17.61
2018-06-14T07:33:39.437Z,17.61
2018-06-14T07:34:39.409Z,17.64
2018-06-14T07:35:39.357Z,17.66
2018-06-14T07:36:39.363Z,17.67
2018-06-14T07:37:39.364Z,17.69
2018-06-14T07:38:39.392Z,17.71
2018-06-14T07:39:39.431Z,17.76
2018-06-14T07:40:39.399Z,17.76
2018-06-14T07:41:39.423Z,17.74
2018-06-14T07:42:39.388Z,17.69
2018-06-14T07:43:39.452Z,17.54
2018-06-14T07:44:39.469Z,17.5
2018-06-14T07:45:39.422Z,17.44
2018-06-14T07:46:39.343Z,17.4
2018-06-14T07:47:39.360Z,17.46
2018-06-14T07:48:39.401Z,17.36
2018-06-14T07:49:39.417Z,17.35
2018-06-14T07:50:39.349Z,17.37
2018-06-14T07:51:39.367Z,17.4
2018-06-14T07:52:39.357Z,17.37
2018-06-14T07:53:39.376Z,17.37
2018-06-14T07:54:39.405Z,17.44
2018-06-14T07:55:39.524Z,17.5
2018-06-14T07:56:39.440Z,17.53
2018-06-14T07:57:39.428Z,17.61
2018-06-14T07:58:39.368Z,17.66
2018-06-14T07:59:39.388Z,17.71
2018-06-14T08:00:39.376Z,17.76
2018-06-14T08:01:39.361Z,17.78
2018-06-14T08:02:39.598Z,17.84
2018-06-14T08:03:39.443Z,17.87
2018-06-14T08:04:39.409Z,17.91
2018-06-14T08:05:39.388Z,17.95
2018-06-14T08:06:39.380Z,17.99
2018-06-14T08:07:39.450Z,17.99
2018-06-14T08:08:39.383Z,18.05
2018-06-14T08:09:39.380Z,18.08
2018-06-14T08:10:39.385Z,18.09
2018-06-14T08:11:39.388Z,18.15
2018-06-14T08:12:39.468Z,18.19
2018-06-14T08:13:39.405Z,18.25
2018-06-14T08:14:39.374Z,18.29
2018-06-14T08:15:39.378Z,18.35
2018-06-14T08:16:39.385Z,18.43
2018-06-14T08:17:39.363Z,18.49
2018-06-14T08:18:39.371Z,18.56
2018-06-14T08:19:39.377Z,18.61
2018-06-14T08:20:39.383Z,18.67
2018-06-14T08:21:39.433Z,18.72
2018-06-14T08:22:39.365Z,18.77
2018-06-14T08:23:39.385Z,18.87
2018-06-14T08:24:39.377Z,18.95
2018-06-14T08:25:39.398Z,18.97
2018-06-14T08:26:39.430Z,18.95
2018-06-14T08:27:39.407Z,18.97
2018-06-14T08:28:39.363Z,18.98
2018-06-14T08:29:39.426Z,19.01
2018-06-14T08:30:39.378Z,19.02
2018-06-14T08:31:39.360Z,19.06
2018-06-14T08:32:39.455Z,19.06
2018-06-14T08:33:39.372Z,19.15
2018-06-14T08:34:39.449Z,19.17
2018-06-14T08:35:39.477Z,19.22
2018-06-14T08:36:39.424Z,19.26
2018-06-14T08:37:39.421Z,19.3
2018-06-14T08:38:39.513Z,19.32
2018-06-14T08:39:39.543Z,19.33
2018-06-14T08:40:39.498Z,19.37
2018-06-14T08:41:39.600Z,19.4
2018-06-14T08:42:39.555Z,19.36
2018-06-14T08:43:39.845Z,19.4
2018-06-14T08:44:39.555Z,19.39
2018-06-14T08:45:39.452Z,19.27
2018-06-14T08:46:40.344Z,19.21
2018-06-14T08:47:39.607Z,19.23
2018-06-14T08:48:39.762Z,19.23
2018-06-14T08:49:39.587Z,19.29
2018-06-14T08:50:40.432Z,19.3
2018-06-14T08:51:39.397Z,19.23
2018-06-14T08:52:39.449Z,19.26
2018-06-14T08:53:39.435Z,19.3
2018-06-14T08:54:39.538Z,19.32
2018-06-14T08:55:39.528Z,19.42
2018-06-14T08:56:39.605Z,19.42
2018-06-14T08:57:39.422Z,19.47
2018-06-14T08:58:39.412Z,19.43
2018-06-14T08:59:39.422Z,19.47
2018-06-14T09:00:39.561Z,19.47
2018-06-14T09:01:39.420Z,19.53
2018-06-14T09:02:39.764Z,19.58
2018-06-14T09:03:39.407Z,19.6
2018-06-14T09:04:39.421Z,19.64
2018-06-14T09:05:39.567Z,19.67
2018-06-14T09:06:39.463Z,19.62
2018-06-14T09:07:39.411Z,19.51
2018-06-14T09:08:39.438Z,19.51
2018-06-14T09:09:39.469Z,19.47
2018-06-14T09:10:39.505Z,19.46
2018-06-14T09:11:39.795Z,19.39
2018-06-14T09:12:39.647Z,19.37
2018-06-14T09:13:39.505Z,19.4
2018-06-14T09:14:39.531Z,19.15
2018-06-14T09:15:39.636Z,19.23
2018-06-14T09:16:39.758Z,19.16
2018-06-14T09:17:39.436Z,19.16
2018-06-14T09:18:39.539Z,19.21
2018-06-14T09:19:39.435Z,19.19
2018-06-14T09:20:39.672Z,19.21
2018-06-14T09:21:39.448Z,19.25
2018-06-14T09:22:39.574Z,19.25
2018-06-14T09:23:39.433Z,19.22
2018-06-14T09:24:40.516Z,19.27
2018-06-14T09:25:39.483Z,19.26
2018-06-14T09:26:39.677Z,19.3
2018-06-14T09:27:39.997Z,19.32
2018-06-14T09:28:39.580Z,19.36
2018-06-14T09:29:39.510Z,19.37
2018-06-14T09:30:39.531Z,19.42
2018-06-14T09:31:39.524Z,19.46
2018-06-14T09:32:39.655Z,19.53
2018-06-14T09:33:39.483Z,19.65
2018-06-14T09:34:39.562Z,19.77
2018-06-14T09:35:39.467Z,19.88
2018-06-14T09:36:39.556Z,19.93
2018-06-14T09:37:39.434Z,20.01
2018-06-14T09:38:39.427Z,20.06
2018-06-14T09:39:39.433Z,20.15
2018-06-14T09:40:42.867Z,20.24
2018-06-14T09:41:40.205Z,20.32
2018-06-14T09:42:39.447Z,20.4
2018-06-14T09:43:39.458Z,20.46
2018-06-14T09:44:39.439Z,20.39
2018-06-14T09:45:39.491Z,20.39
2018-06-14T09:46:39.641Z,20.41
2018-06-14T09:47:39.468Z,20.46
2018-06-14T09:48:39.539Z,20.5
2018-06-14T09:49:39.478Z,20.54
2018-06-14T09:50:40.486Z,20.6
2018-06-14T09:51:39.429Z,20.6
2018-06-14T09:52:39.458Z,20.64
2018-06-14T09:53:39.438Z,20.71
2018-06-14T09:54:39.442Z,20.72
2018-06-14T09:55:39.598Z,20.72
2018-06-14T09:56:39.501Z,20.64
2018-06-14T09:57:39.474Z,20.62
2018-06-14T09:58:39.477Z,20.64
2018-06-14T09:59:39.438Z,20.61
2018-06-14T10:00:39.633Z,20.58
2018-06-14T10:01:39.464Z,20.61
2018-06-14T10:02:39.459Z,20.61
2018-06-14T10:03:39.467Z,20.6
2018-06-14T10:04:39.443Z,20.57
2018-06-14T10:05:41.613Z,20.57
2018-06-14T10:06:39.458Z,20.55
2018-06-14T10:07:39.508Z,20.58
2018-06-14T10:08:39.438Z,20.6
2018-06-14T10:09:39.477Z,20.61
2018-06-14T10:10:39.603Z,20.62
2018-06-14T10:11:39.452Z,20.64
2018-06-14T10:12:39.490Z,20.51
2018-06-14T10:13:39.471Z,20.5
2018-06-14T10:14:39.467Z,20.58
2018-06-14T10:15:39.731Z,20.61
2018-06-14T10:16:39.465Z,20.7
2018-06-14T10:17:39.512Z,20.74
2018-06-14T10:18:39.614Z,20.77
2018-06-14T10:19:39.443Z,20.79
2018-06-14T10:20:39.449Z,20.79
2018-06-14T10:21:39.632Z,20.91
2018-06-14T10:22:39.507Z,20.96
2018-06-14T10:23:39.498Z,21.03
2018-06-14T10:24:39.437Z,21.12
2018-06-14T10:25:39.597Z,21.12
2018-06-14T10:26:39.459Z,21.07
2018-06-14T10:27:39.452Z,21.1
2018-06-14T10:28:39.445Z,21.1
2018-06-14T10:29:39.578Z,21.12
2018-06-14T10:30:39.940Z,21.13
2018-06-14T10:31:39.680Z,21.15
2018-06-14T10:32:39.491Z,21.22
2018-06-14T10:33:39.493Z,21.26
2018-06-14T10:34:39.671Z,21.27
2018-06-14T10:35:39.560Z,21.3
2018-06-14T10:36:39.474Z,21.1
2018-06-14T10:37:39.473Z,21.02
2018-06-14T10:38:39.478Z,21.09
2018-06-14T10:39:39.510Z,21.12
2018-06-14T10:40:39.589Z,21.17
2018-06-14T10:41:39.461Z,21.26
2018-06-14T10:42:39.494Z,21.32
2018-06-14T10:43:39.454Z,21.39
2018-06-14T10:44:39.469Z,21.44
2018-06-14T10:45:39.669Z,21.5
2018-06-14T10:46:39.672Z,21.47
2018-06-14T10:47:39.469Z,21.46
2018-06-14T10:48:39.863Z,21.51
2018-06-14T10:49:39.464Z,21.57
2018-06-14T10:50:39.462Z,21.58
2018-06-14T10:51:39.673Z,21.6
2018-06-14T10:52:39.486Z,21.6
2018-06-14T10:53:39.579Z,21.47
2018-06-14T10:54:39.459Z,21.51
2018-06-14T10:55:39.597Z,21.51
2018-06-14T10:56:39.611Z,21.56
2018-06-14T10:57:39.669Z,21.5
2018-06-14T10:58:39.662Z,21.53
2018-06-14T10:59:39.480Z,21.4
2018-06-14T11:00:39.632Z,21.37
2018-06-14T11:01:39.650Z,21.4
2018-06-14T11:02:39.487Z,21.41
2018-06-14T11:03:39.492Z,21.4
2018-06-14T11:04:39.598Z,21.41
2018-06-14T11:05:39.564Z,21.43
2018-06-14T11:06:39.502Z,21.49
2018-06-14T11:07:39.503Z,21.51
2018-06-14T11:08:39.535Z,21.3
2018-06-14T11:09:39.494Z,20.94
2018-06-14T11:10:39.706Z,21.06
2018-06-14T11:11:39.471Z,21.03
2018-06-14T11:12:39.491Z,20.88
2018-06-14T11:13:39.473Z,20.91
2018-06-14T11:14:39.460Z,20.87
2018-06-14T11:15:39.629Z,20.81
2018-06-14T11:16:39.621Z,20.87
2018-06-14T11:17:39.814Z,20.85
2018-06-14T11:18:39.487Z,20.87
2018-06-14T11:19:39.497Z,20.98
2018-06-14T11:20:39.668Z,20.94
2018-06-14T11:21:39.487Z,21.01
2018-06-14T11:22:39.540Z,20.74
2018-06-14T11:23:39.653Z,20.6
2018-06-14T11:24:39.501Z,20.48
2018-06-14T11:25:39.577Z,20.41
2018-06-14T11:26:39.536Z,20.51
2018-06-14T11:27:39.705Z,20.52
2018-06-14T11:28:39.650Z,20.55
2018-06-14T11:29:39.609Z,20.58
2018-06-14T11:30:39.622Z,20.61
2018-06-14T11:31:39.536Z,20.67
2018-06-14T11:32:39.481Z,20.62
2018-06-14T11:33:39.520Z,20.6
2018-06-14T11:34:39.526Z,20.6
2018-06-14T11:35:39.658Z,20.55
2018-06-14T11:36:39.489Z,20.47
2018-06-14T11:37:39.487Z,20.44
2018-06-14T11:38:39.515Z,20.3
2018-06-14T11:39:39.658Z,20.2
2018-06-14T11:40:39.691Z,20.22
2018-06-14T11:41:39.576Z,20.15
2018-06-14T11:42:39.515Z,20.27
2018-06-14T11:43:39.585Z,20.37
2018-06-14T11:44:39.717Z,20.47
2018-06-14T11:45:39.506Z,20.43
2018-06-14T11:46:39.517Z,20.33
2018-06-14T11:47:39.549Z,20.33
2018-06-14T11:48:39.502Z,20.3
2018-06-14T11:49:39.490Z,20.26
2018-06-14T11:50:39.671Z,20.36
2018-06-14T11:51:39.553Z,20.41
2018-06-14T11:52:39.513Z,20.48
2018-06-14T11:53:39.504Z,20.55
2018-06-14T11:54:39.526Z,20.58
2018-06-14T11:55:39.517Z,20.68
2018-06-14T11:56:39.523Z,20.71
2018-06-14T11:57:39.575Z,20.79
2018-06-14T11:58:39.514Z,20.79
2018-06-14T11:59:39.518Z,20.84
2018-06-14T12:00:39.638Z,20.87
2018-06-14T12:01:39.601Z,20.85
2018-06-14T12:02:39.509Z,20.79
2018-06-14T12:03:39.498Z,20.72
2018-06-14T12:04:39.542Z,20.79
2018-06-14T12:05:39.665Z,20.85
2018-06-14T12:06:39.542Z,20.96
2018-06-14T12:07:39.542Z,21.02
2018-06-14T12:08:39.515Z,20.92
2018-06-14T12:09:39.536Z,20.84
2018-06-14T12:10:39.540Z,20.48
2018-06-14T12:11:39.566Z,20.32
2018-06-14T12:12:39.544Z,20.39
2018-06-14T12:13:39.539Z,20.2
2018-06-14T12:14:39.559Z,20.3
2018-06-14T12:15:39.599Z,20.26
2018-06-14T12:16:39.538Z,20.36
2018-06-14T12:17:39.558Z,20.41
2018-06-14T12:18:39.533Z,20.48
2018-06-14T12:19:39.540Z,20.55
2018-06-14T12:20:39.669Z,20.65
2018-06-14T12:21:39.540Z,20.74
2018-06-14T12:22:39.577Z,20.79
2018-06-14T12:23:39.525Z,20.87
2018-06-14T12:24:39.528Z,20.95
2018-06-14T12:25:39.542Z,20.99
2018-06-14T12:26:39.574Z,21.05
2018-06-14T12:27:39.573Z,21.07
2018-06-14T12:28:39.554Z,21.1
2018-06-14T12:29:39.625Z,21.19
2018-06-14T12:30:39.641Z,21.2
2018-06-14T12:31:39.693Z,21.26
2018-06-14T12:32:39.589Z,21.32
2018-06-14T12:33:39.656Z,21.1
2018-06-14T12:34:39.563Z,21.15
2018-06-14T12:35:39.537Z,21.13
2018-06-14T12:36:39.549Z,20.94
2018-06-14T12:37:39.841Z,20.88
2018-06-14T12:38:39.650Z,20.94
2018-06-14T12:39:39.564Z,21.07
2018-06-14T12:40:39.703Z,21.17
2018-06-14T12:41:39.716Z,21.32
2018-06-14T12:42:39.554Z,21.43
2018-06-14T12:43:39.571Z,21.41
2018-06-14T12:44:39.678Z,21.39
2018-06-14T12:45:39.748Z,21.37
2018-06-14T12:46:39.613Z,21.43
2018-06-14T12:47:39.587Z,21.47
2018-06-14T12:48:39.702Z,21.5
2018-06-14T12:49:39.825Z,21.51
2018-06-14T12:50:39.882Z,21.56
2018-06-14T12:51:39.759Z,21.56
2018-06-14T12:52:39.548Z,21.56
2018-06-14T12:53:39.559Z,21.56
2018-06-14T12:54:39.631Z,21.41
2018-06-14T12:55:39.638Z,21.36